sensor_id;sensor_type;location;lat;lon;timestamp;temperature;humidity
25708;DHT22;13567;61.652;17.100;2022-08-11T00:01:22;18.40;99.90
25708;DHT22;13567;61.652;17.100;2022-08-11T00:03:58;18.40;99.90
25708;DHT22;13567;61.652;17.100;2022-08-11T00:06:36;18.40;99.90
25708;DHT22;13567;61.652;17.100;2022-08-11T00:09:07;18.40;99.90
25708;DHT22;13567;61.652;17.100;2022-08-11T00:11:42;18.40;99.90
25708;DHT22;13567;61.652;17.100;2022-08-11T00:14:27;18.40;99.90
25708;DHT22;13567;61.652;17.100;2022-08-11T00:17:13;18.40;99.90
25708;DHT22;13567;61.652;17.100;2022-08-11T00:19:46;18.30;99.90
25708;DHT22;13567;61.652;17.100;2022-08-11T00:22:37;18.20;99.90
25708;DHT22;13567;61.652;17.100;2022-08-11T00:25:13;18.20;99.90
25708;DHT22;13567;61.652;17.100;2022-08-11T00:27:41;18.20;99.90
25708;DHT22;13567;61.652;17.100;2022-08-11T00:30:10;18.10;99.90
25708;DHT22;13567;61.652;17.100;2022-08-11T00:32:40;18.10;99.90
25708;DHT22;13567;61.652;17.100;2022-08-11T00:35:11;18.10;99.90
25708;DHT22;13567;61.652;17.100;2022-08-11T00:37:59;18.00;99.90
25708;DHT22;13567;61.652;17.100;2022-08-11T00:40:52;18.00;99.90
25708;DHT22;13567;61.652;17.100;2022-08-11T00:43:46;18.00;99.90
25708;DHT22;13567;61.652;17.100;2022-08-11T00:46:39;17.90;99.90
25708;DHT22;13567;61.652;17.100;2022-08-11T00:52:11;17.80;99.90
25708;DHT22;13567;61.652;17.100;2022-08-11T00:58:02;17.70;99.90
25708;DHT22;13567;61.652;17.100;2022-08-11T01:10:05;17.70;99.90
25708;DHT22;13567;61.652;17.100;2022-08-11T01:30:19;17.10;99.90
25708;DHT22;13567;61.652;17.100;2022-08-11T01:33:26;17.10;99.90
25708;DHT22;13567;61.652;17.100;2022-08-11T01:44:58;17.30;99.90
25708;DHT22;13567;61.652;17.100;2022-08-11T01:47:43;17.50;99.90
25708;DHT22;13567;61.652;17.100;2022-08-11T01:58:59;17.70;99.90
25708;DHT22;13567;61.652;17.100;2022-08-11T02:04:14;17.60;99.90
25708;DHT22;13567;61.652;17.100;2022-08-11T02:06:54;17.80;99.90
25708;DHT22;13567;61.652;17.100;2022-08-11T02:12:43;17.80;99.90
25708;DHT22;13567;61.652;17.100;2022-08-11T02:15:41;17.90;99.90
25708;DHT22;13567;61.652;17.100;2022-08-11T02:18:26;17.90;99.90
25708;DHT22;13567;61.652;17.100;2022-08-11T02:21:22;17.80;99.90
25708;DHT22;13567;61.652;17.100;2022-08-11T02:24:20;17.70;99.90
25708;DHT22;13567;61.652;17.100;2022-08-11T02:26:55;17.70;99.90
25708;DHT22;13567;61.652;17.100;2022-08-11T02:30:00;17.60;99.90
25708;DHT22;13567;61.652;17.100;2022-08-11T02:32:50;17.50;99.90
25708;DHT22;13567;61.652;17.100;2022-08-11T02:36:09;17.50;99.90
25708;DHT22;13567;61.652;17.100;2022-08-11T02:39:04;17.60;99.90
25708;DHT22;13567;61.652;17.100;2022-08-11T02:41:58;17.70;99.90
25708;DHT22;13567;61.652;17.100;2022-08-11T02:57:15;17.30;99.90
25708;DHT22;13567;61.652;17.100;2022-08-11T02:59:48;17.10;99.90
25708;DHT22;13567;61.652;17.100;2022-08-11T03:02:37;17.00;99.90
25708;DHT22;13567;61.652;17.100;2022-08-11T03:10:53;17.20;99.90
25708;DHT22;13567;61.652;17.100;2022-08-11T03:25:33;17.80;99.90
25708;DHT22;13567;61.652;17.100;2022-08-11T03:28:31;17.90;99.90
25708;DHT22;13567;61.652;17.100;2022-08-11T03:31:24;17.90;99.90
25708;DHT22;13567;61.652;17.100;2022-08-11T03:34:05;17.80;99.90
25708;DHT22;13567;61.652;17.100;2022-08-11T03:42:42;17.70;99.90
25708;DHT22;13567;61.652;17.100;2022-08-11T03:48:19;17.90;99.90
25708;DHT22;13567;61.652;17.100;2022-08-11T03:50:54;17.90;99.90
25708;DHT22;13567;61.652;17.100;2022-08-11T04:05:40;18.00;99.90
25708;DHT22;13567;61.652;17.100;2022-08-11T04:12:21;18.10;99.90
25708;DHT22;13567;61.652;17.100;2022-08-11T04:14:41;18.20;99.90
25708;DHT22;13567;61.652;17.100;2022-08-11T04:17:42;18.30;99.90
25708;DHT22;13567;61.652;17.100;2022-08-11T04:20:48;18.30;99.90
25708;DHT22;13567;61.652;17.100;2022-08-11T04:31:37;18.60;99.90
25708;DHT22;13567;61.652;17.100;2022-08-11T04:34:33;18.60;99.90
25708;DHT22;13567;61.652;17.100;2022-08-11T04:58:51;19.30;99.90
25708;DHT22;13567;61.652;17.100;2022-08-11T05:16:59;20.00;99.90
25708;DHT22;13567;61.652;17.100;2022-08-11T05:19:48;20.10;99.90
25708;DHT22;13567;61.652;17.100;2022-08-11T05:22:34;20.20;99.90
25708;DHT22;13567;61.652;17.100;2022-08-11T05:25:30;20.30;99.90
25708;DHT22;13567;61.652;17.100;2022-08-11T05:28:40;20.50;99.90
25708;DHT22;13567;61.652;17.100;2022-08-11T05:31:54;20.70;99.90
25708;DHT22;13567;61.652;17.100;2022-08-11T05:34:50;20.80;99.90
25708;DHT22;13567;61.652;17.100;2022-08-11T05:37:32;20.90;99.90
25708;DHT22;13567;61.652;17.100;2022-08-11T05:40:05;20.90;99.90
25708;DHT22;13567;61.652;17.100;2022-08-11T05:43:05;21.00;99.90
25708;DHT22;13567;61.652;17.100;2022-08-11T05:46:01;21.00;99.90
25708;DHT22;13567;61.652;17.100;2022-08-11T05:48:49;21.20;99.90
25708;DHT22;13567;61.652;17.100;2022-08-11T05:51:38;21.40;99.90
25708;DHT22;13567;61.652;17.100;2022-08-11T05:54:39;21.40;99.90
25708;DHT22;13567;61.652;17.100;2022-08-11T05:57:35;21.50;99.90
25708;DHT22;13567;61.652;17.100;2022-08-11T06:00:17;21.70;99.90
25708;DHT22;13567;61.652;17.100;2022-08-11T06:02:49;21.80;99.90
25708;DHT22;13567;61.652;17.100;2022-08-11T06:05:16;21.90;99.90
25708;DHT22;13567;61.652;17.100;2022-08-11T06:07:47;22.00;99.90
25708;DHT22;13567;61.652;17.100;2022-08-11T06:10:36;22.10;99.90
25708;DHT22;13567;61.652;17.100;2022-08-11T06:13:05;22.10;99.90
25708;DHT22;13567;61.652;17.100;2022-08-11T06:15:42;22.00;99.90
25708;DHT22;13567;61.652;17.100;2022-08-11T06:18:11;22.10;99.90
25708;DHT22;13567;61.652;17.100;2022-08-11T06:20:47;22.20;99.90
25708;DHT22;13567;61.652;17.100;2022-08-11T06:23:15;22.30;99.90
25708;DHT22;13567;61.652;17.100;2022-08-11T06:25:53;22.30;99.90
25708;DHT22;13567;61.652;17.100;2022-08-11T06:28:33;22.30;99.90
25708;DHT22;13567;61.652;17.100;2022-08-11T06:31:10;22.30;99.90
25708;DHT22;13567;61.652;17.100;2022-08-11T06:37:08;22.50;99.90
25708;DHT22;13567;61.652;17.100;2022-08-11T06:45:27;23.70;99.90
25708;DHT22;13567;61.652;17.100;2022-08-11T06:47:56;24.10;99.90
25708;DHT22;13567;61.652;17.100;2022-08-11T06:50:28;24.30;99.90
25708;DHT22;13567;61.652;17.100;2022-08-11T06:53:17;24.60;99.90
25708;DHT22;13567;61.652;17.100;2022-08-11T06:55:47;24.80;99.90
25708;DHT22;13567;61.652;17.100;2022-08-11T06:58:36;24.90;99.90
25708;DHT22;13567;61.652;17.100;2022-08-11T07:02:04;25.00;99.90
25708;DHT22;13567;61.652;17.100;2022-08-11T07:04:47;25.40;99.90
25708;DHT22;13567;61.652;17.100;2022-08-11T07:14:03;26.40;99.50
25708;DHT22;13567;61.652;17.100;2022-08-11T07:16:50;26.60;99.10
25708;DHT22;13567;61.652;17.100;2022-08-11T07:19:23;26.70;97.50
25708;DHT22;13567;61.652;17.100;2022-08-11T07:22:11;26.50;96.60
25708;DHT22;13567;61.652;17.100;2022-08-11T07:25:23;26.30;97.30
25708;DHT22;13567;61.652;17.100;2022-08-11T07:28:16;25.90;97.70
25708;DHT22;13567;61.652;17.100;2022-08-11T07:31:07;25.70;97.50
25708;DHT22;13567;61.652;17.100;2022-08-11T07:34:10;25.70;98.30
25708;DHT22;13567;61.652;17.100;2022-08-11T07:36:56;25.90;97.50
25708;DHT22;13567;61.652;17.100;2022-08-11T07:39:30;26.00;96.80
25708;DHT22;13567;61.652;17.100;2022-08-11T07:42:03;26.00;95.10
25708;DHT22;13567;61.652;17.100;2022-08-11T07:44:31;26.00;96.30
25708;DHT22;13567;61.652;17.100;2022-08-11T07:47:18;26.30;97.20
25708;DHT22;13567;61.652;17.100;2022-08-11T07:50:05;26.50;94.80
25708;DHT22;13567;61.652;17.100;2022-08-11T07:52:51;26.80;94.60
25708;DHT22;13567;61.652;17.100;2022-08-11T07:55:21;26.70;95.50
25708;DHT22;13567;61.652;17.100;2022-08-11T07:58:11;27.20;94.20
25708;DHT22;13567;61.652;17.100;2022-08-11T08:01:12;27.60;94.20
25708;DHT22;13567;61.652;17.100;2022-08-11T08:04:04;27.90;92.40
25708;DHT22;13567;61.652;17.100;2022-08-11T08:06:53;28.30;92.40
25708;DHT22;13567;61.652;17.100;2022-08-11T08:09:39;28.80;90.40
25708;DHT22;13567;61.652;17.100;2022-08-11T08:12:26;28.90;89.70
25708;DHT22;13567;61.652;17.100;2022-08-11T08:15:14;28.80;88.90
25708;DHT22;13567;61.652;17.100;2022-08-11T08:18:02;29.00;89.80
25708;DHT22;13567;61.652;17.100;2022-08-11T08:20:51;29.50;88.80
25708;DHT22;13567;61.652;17.100;2022-08-11T08:23:21;29.90;86.20
25708;DHT22;13567;61.652;17.100;2022-08-11T08:26:03;29.90;84.60
25708;DHT22;13567;61.652;17.100;2022-08-11T08:28:43;30.50;83.40
25708;DHT22;13567;61.652;17.100;2022-08-11T08:31:12;31.30;81.80
25708;DHT22;13567;61.652;17.100;2022-08-11T08:33:41;31.30;78.70
25708;DHT22;13567;61.652;17.100;2022-08-11T08:36:09;32.10;75.40
25708;DHT22;13567;61.652;17.100;2022-08-11T08:38:47;32.40;73.80
25708;DHT22;13567;61.652;17.100;2022-08-11T08:41:20;32.00;73.10
25708;DHT22;13567;61.652;17.100;2022-08-11T08:43:51;32.40;73.70
25708;DHT22;13567;61.652;17.100;2022-08-11T08:46:32;33.30;71.60
25708;DHT22;13567;61.652;17.100;2022-08-11T08:49:01;34.00;72.00
25708;DHT22;13567;61.652;17.100;2022-08-11T08:51:35;34.40;68.60
25708;DHT22;13567;61.652;17.100;2022-08-11T08:54:36;34.20;66.40
25708;DHT22;13567;61.652;17.100;2022-08-11T08:57:05;33.50;64.80
25708;DHT22;13567;61.652;17.100;2022-08-11T08:59:38;33.20;63.10
25708;DHT22;13567;61.652;17.100;2022-08-11T09:02:17;33.60;63.20
25708;DHT22;13567;61.652;17.100;2022-08-11T09:05:02;32.50;66.70
25708;DHT22;13567;61.652;17.100;2022-08-11T09:07:30;33.40;64.00
25708;DHT22;13567;61.652;17.100;2022-08-11T09:10:07;33.80;62.00
25708;DHT22;13567;61.652;17.100;2022-08-11T09:12:35;34.00;63.30
25708;DHT22;13567;61.652;17.100;2022-08-11T09:15:05;34.30;63.60
25708;DHT22;13567;61.652;17.100;2022-08-11T09:17:42;33.40;61.90
25708;DHT22;13567;61.652;17.100;2022-08-11T09:20:24;33.50;64.60
25708;DHT22;13567;61.652;17.100;2022-08-11T09:22:57;33.80;63.20
25708;DHT22;13567;61.652;17.100;2022-08-11T09:26:03;33.20;63.70
25708;DHT22;13567;61.652;17.100;2022-08-11T09:28:57;33.40;63.20
25708;DHT22;13567;61.652;17.100;2022-08-11T09:31:25;33.70;63.00
25708;DHT22;13567;61.652;17.100;2022-08-11T09:33:54;34.20;61.60
25708;DHT22;13567;61.652;17.100;2022-08-11T09:36:23;34.00;60.30
25708;DHT22;13567;61.652;17.100;2022-08-11T09:39:11;33.40;61.50
25708;DHT22;13567;61.652;17.100;2022-08-11T09:42:00;32.30;63.80
25708;DHT22;13567;61.652;17.100;2022-08-11T09:44:31;31.80;64.60
25708;DHT22;13567;61.652;17.100;2022-08-11T09:47:27;31.80;65.90
25708;DHT22;13567;61.652;17.100;2022-08-11T09:49:57;31.90;65.50
25708;DHT22;13567;61.652;17.100;2022-08-11T09:52:28;31.40;69.00
25708;DHT22;13567;61.652;17.100;2022-08-11T09:54:56;31.30;65.00
25708;DHT22;13567;61.652;17.100;2022-08-11T09:57:24;30.90;66.60
25708;DHT22;13567;61.652;17.100;2022-08-11T10:00:11;30.60;68.90
25708;DHT22;13567;61.652;17.100;2022-08-11T10:02:45;30.20;69.00
25708;DHT22;13567;61.652;17.100;2022-08-11T10:05:16;29.30;72.40
25708;DHT22;13567;61.652;17.100;2022-08-11T10:08:04;29.30;73.00
25708;DHT22;13567;61.652;17.100;2022-08-11T10:10:35;30.10;72.80
25708;DHT22;13567;61.652;17.100;2022-08-11T10:13:06;30.00;70.50
25708;DHT22;13567;61.652;17.100;2022-08-11T10:15:58;28.90;71.70
25708;DHT22;13567;61.652;17.100;2022-08-11T10:18:46;27.80;74.90
25708;DHT22;13567;61.652;17.100;2022-08-11T10:23:58;27.20;75.80
25708;DHT22;13567;61.652;17.100;2022-08-11T10:26:46;26.60;79.10
25708;DHT22;13567;61.652;17.100;2022-08-11T10:29:35;26.20;81.30
25708;DHT22;13567;61.652;17.100;2022-08-11T10:32:27;26.10;80.40
25708;DHT22;13567;61.652;17.100;2022-08-11T10:35:27;26.60;81.20
25708;DHT22;13567;61.652;17.100;2022-08-11T10:37:54;27.00;79.80
25708;DHT22;13567;61.652;17.100;2022-08-11T10:40:40;27.20;80.60
25708;DHT22;13567;61.652;17.100;2022-08-11T10:43:12;27.30;80.30
25708;DHT22;13567;61.652;17.100;2022-08-11T10:46:00;27.20;81.00
25708;DHT22;13567;61.652;17.100;2022-08-11T10:48:56;27.00;80.40
25708;DHT22;13567;61.652;17.100;2022-08-11T10:51:25;27.20;82.90
25708;DHT22;13567;61.652;17.100;2022-08-11T10:54:17;27.40;81.80
25708;DHT22;13567;61.652;17.100;2022-08-11T10:57:05;26.60;82.50
25708;DHT22;13567;61.652;17.100;2022-08-11T10:59:54;26.10;82.30
25708;DHT22;13567;61.652;17.100;2022-08-11T11:02:21;25.50;85.80
25708;DHT22;13567;61.652;17.100;2022-08-11T11:05:02;24.70;86.60
25708;DHT22;13567;61.652;17.100;2022-08-11T11:07:37;24.00;89.50
25708;DHT22;13567;61.652;17.100;2022-08-11T11:10:10;23.90;87.40
25708;DHT22;13567;61.652;17.100;2022-08-11T11:12:42;23.60;88.20
25708;DHT22;13567;61.652;17.100;2022-08-11T11:15:30;23.50;89.40
25708;DHT22;13567;61.652;17.100;2022-08-11T11:18:26;23.50;90.00
25708;DHT22;13567;61.652;17.100;2022-08-11T11:21:09;23.60;89.50
25708;DHT22;13567;61.652;17.100;2022-08-11T11:23:53;23.90;89.80
25708;DHT22;13567;61.652;17.100;2022-08-11T11:29:21;24.90;87.90
25708;DHT22;13567;61.652;17.100;2022-08-11T11:37:21;24.50;88.20
25708;DHT22;13567;61.652;17.100;2022-08-11T11:39:51;24.10;90.60
25708;DHT22;13567;61.652;17.100;2022-08-11T11:42:20;24.70;90.10
25708;DHT22;13567;61.652;17.100;2022-08-11T11:44:49;24.30;90.30
25708;DHT22;13567;61.652;17.100;2022-08-11T11:47:21;24.60;89.10
25708;DHT22;13567;61.652;17.100;2022-08-11T11:49:49;25.10;88.10
25708;DHT22;13567;61.652;17.100;2022-08-11T11:52:19;26.20;85.60
25708;DHT22;13567;61.652;17.100;2022-08-11T11:54:52;26.50;85.00
25708;DHT22;13567;61.652;17.100;2022-08-11T11:57:21;27.20;81.50
25708;DHT22;13567;61.652;17.100;2022-08-11T12:00:24;27.50;81.90
25708;DHT22;13567;61.652;17.100;2022-08-11T12:03:11;28.30;78.00
25708;DHT22;13567;61.652;17.100;2022-08-11T12:05:41;28.60;75.90
25708;DHT22;13567;61.652;17.100;2022-08-11T12:08:11;27.70;77.90
25708;DHT22;13567;61.652;17.100;2022-08-11T12:10:56;27.50;78.40
25708;DHT22;13567;61.652;17.100;2022-08-11T12:13:48;27.70;77.50
25708;DHT22;13567;61.652;17.100;2022-08-11T12:16:18;28.10;76.30
25708;DHT22;13567;61.652;17.100;2022-08-11T12:19:04;27.60;76.00
25708;DHT22;13567;61.652;17.100;2022-08-11T12:21:33;27.50;75.50
25708;DHT22;13567;61.652;17.100;2022-08-11T12:24:02;27.10;77.10
25708;DHT22;13567;61.652;17.100;2022-08-11T12:26:55;26.70;78.80
25708;DHT22;13567;61.652;17.100;2022-08-11T12:29:49;25.70;82.90
25708;DHT22;13567;61.652;17.100;2022-08-11T12:32:24;25.20;83.20
25708;DHT22;13567;61.652;17.100;2022-08-11T12:34:52;25.10;83.80
25708;DHT22;13567;61.652;17.100;2022-08-11T12:37:27;25.00;85.10
25708;DHT22;13567;61.652;17.100;2022-08-11T12:39:59;24.80;84.60
25708;DHT22;13567;61.652;17.100;2022-08-11T12:43:07;24.50;86.10
25708;DHT22;13567;61.652;17.100;2022-08-11T12:46:07;24.00;85.80
25708;DHT22;13567;61.652;17.100;2022-08-11T12:48:39;23.30;90.10
25708;DHT22;13567;61.652;17.100;2022-08-11T12:51:32;22.80;90.90
25708;DHT22;13567;61.652;17.100;2022-08-11T12:57:19;22.50;91.60
25708;DHT22;13567;61.652;17.100;2022-08-11T13:00:08;22.30;91.80
25708;DHT22;13567;61.652;17.100;2022-08-11T13:02:54;22.20;91.50
25708;DHT22;13567;61.652;17.100;2022-08-11T13:05:42;22.20;92.10
25708;DHT22;13567;61.652;17.100;2022-08-11T13:08:11;22.20;92.20
25708;DHT22;13567;61.652;17.100;2022-08-11T13:10:42;22.10;91.80
25708;DHT22;13567;61.652;17.100;2022-08-11T13:13:29;22.20;91.50
25708;DHT22;13567;61.652;17.100;2022-08-11T13:16:17;22.50;91.90
25708;DHT22;13567;61.652;17.100;2022-08-11T13:18:46;22.60;91.50
25708;DHT22;13567;61.652;17.100;2022-08-11T13:21:14;22.90;91.70
25708;DHT22;13567;61.652;17.100;2022-08-11T13:23:51;23.10;91.40
25708;DHT22;13567;61.652;17.100;2022-08-11T13:26:30;23.10;90.80
25708;DHT22;13567;61.652;17.100;2022-08-11T13:29:23;23.40;90.00
25708;DHT22;13567;61.652;17.100;2022-08-11T13:31:53;23.10;90.40
25708;DHT22;13567;61.652;17.100;2022-08-11T13:34:23;22.90;91.00
25708;DHT22;13567;61.652;17.100;2022-08-11T13:36:53;23.10;91.50
25708;DHT22;13567;61.652;17.100;2022-08-11T13:39:30;23.40;91.20
25708;DHT22;13567;61.652;17.100;2022-08-11T13:41:59;23.70;91.20
25708;DHT22;13567;61.652;17.100;2022-08-11T13:44:29;23.70;89.10
25708;DHT22;13567;61.652;17.100;2022-08-11T13:47:02;23.10;90.00
25708;DHT22;13567;61.652;17.100;2022-08-11T13:49:31;22.90;90.90
25708;DHT22;13567;61.652;17.100;2022-08-11T13:52:01;23.00;91.70
25708;DHT22;13567;61.652;17.100;2022-08-11T13:54:31;23.30;90.60
25708;DHT22;13567;61.652;17.100;2022-08-11T13:57:04;23.40;90.60
25708;DHT22;13567;61.652;17.100;2022-08-11T13:59:40;23.70;90.50
25708;DHT22;13567;61.652;17.100;2022-08-11T14:02:20;23.30;90.20
25708;DHT22;13567;61.652;17.100;2022-08-11T14:05:15;22.60;91.50
25708;DHT22;13567;61.652;17.100;2022-08-11T14:07:57;22.70;91.50
25708;DHT22;13567;61.652;17.100;2022-08-11T14:10:28;23.10;91.40
25708;DHT22;13567;61.652;17.100;2022-08-11T14:13:18;23.10;91.60
25708;DHT22;13567;61.652;17.100;2022-08-11T14:16:28;23.50;91.80
25708;DHT22;13567;61.652;17.100;2022-08-11T14:19:02;23.30;91.30
25708;DHT22;13567;61.652;17.100;2022-08-11T14:21:34;22.80;91.30
25708;DHT22;13567;61.652;17.100;2022-08-11T14:24:21;22.40;91.90
25708;DHT22;13567;61.652;17.100;2022-08-11T14:26:50;22.30;92.50
25708;DHT22;13567;61.652;17.100;2022-08-11T14:29:20;22.40;92.10
25708;DHT22;13567;61.652;17.100;2022-08-11T14:31:49;22.40;92.00
25708;DHT22;13567;61.652;17.100;2022-08-11T14:34:19;22.90;92.60
25708;DHT22;13567;61.652;17.100;2022-08-11T14:36:52;23.20;90.80
25708;DHT22;13567;61.652;17.100;2022-08-11T14:39:27;23.20;91.30
25708;DHT22;13567;61.652;17.100;2022-08-11T14:41:59;23.50;91.30
25708;DHT22;13567;61.652;17.100;2022-08-11T14:44:48;23.40;90.90
25708;DHT22;13567;61.652;17.100;2022-08-11T14:47:36;23.20;90.60
25708;DHT22;13567;61.652;17.100;2022-08-11T14:50:05;23.10;90.90
25708;DHT22;13567;61.652;17.100;2022-08-11T14:52:58;23.30;90.90
25708;DHT22;13567;61.652;17.100;2022-08-11T14:55:30;23.50;90.80
25708;DHT22;13567;61.652;17.100;2022-08-11T14:58:18;23.40;90.60
25708;DHT22;13567;61.652;17.100;2022-08-11T15:00:46;23.00;90.80
25708;DHT22;13567;61.652;17.100;2022-08-11T15:03:18;22.70;91.40
25708;DHT22;13567;61.652;17.100;2022-08-11T15:05:55;22.40;91.50
25708;DHT22;13567;61.652;17.100;2022-08-11T15:08:29;22.40;91.80
25708;DHT22;13567;61.652;17.100;2022-08-11T15:11:17;22.30;91.40
25708;DHT22;13567;61.652;17.100;2022-08-11T15:14:05;22.80;91.20
25708;DHT22;13567;61.652;17.100;2022-08-11T15:16:36;22.90;90.60
25708;DHT22;13567;61.652;17.100;2022-08-11T15:19:28;22.90;90.70
25708;DHT22;13567;61.652;17.100;2022-08-11T15:22:08;23.10;90.90
25708;DHT22;13567;61.652;17.100;2022-08-11T15:24:57;22.70;91.60
25708;DHT22;13567;61.652;17.100;2022-08-11T15:27:24;23.00;90.90
25708;DHT22;13567;61.652;17.100;2022-08-11T15:30:10;23.90;89.20
25708;DHT22;13567;61.652;17.100;2022-08-11T15:33:05;24.50;87.70
25708;DHT22;13567;61.652;17.100;2022-08-11T15:35:53;24.40;83.50
25708;DHT22;13567;61.652;17.100;2022-08-11T15:39:20;24.10;84.70
25708;DHT22;13567;61.652;17.100;2022-08-11T15:42:02;23.10;85.90
25708;DHT22;13567;61.652;17.100;2022-08-11T15:44:55;22.00;88.60
25708;DHT22;13567;61.652;17.100;2022-08-11T15:47:45;21.40;89.60
25708;DHT22;13567;61.652;17.100;2022-08-11T15:50:18;21.10;90.70
25708;DHT22;13567;61.652;17.100;2022-08-11T15:52:55;21.40;90.90
25708;DHT22;13567;61.652;17.100;2022-08-11T15:55:23;21.60;90.00
25708;DHT22;13567;61.652;17.100;2022-08-11T15:57:53;21.80;90.20
25708;DHT22;13567;61.652;17.100;2022-08-11T16:00:40;21.70;90.70
25708;DHT22;13567;61.652;17.100;2022-08-11T16:03:40;21.80;91.20
25708;DHT22;13567;61.652;17.100;2022-08-11T16:07:05;22.20;90.60
25708;DHT22;13567;61.652;17.100;2022-08-11T16:09:41;22.00;90.60
25708;DHT22;13567;61.652;17.100;2022-08-11T16:12:22;22.00;90.90
25708;DHT22;13567;61.652;17.100;2022-08-11T16:14:55;22.00;90.40
25708;DHT22;13567;61.652;17.100;2022-08-11T16:17:58;21.90;90.40
25708;DHT22;13567;61.652;17.100;2022-08-11T16:20:27;21.60;89.90
25708;DHT22;13567;61.652;17.100;2022-08-11T16:23:01;21.40;90.80
25708;DHT22;13567;61.652;17.100;2022-08-11T16:25:32;21.10;91.50
25708;DHT22;13567;61.652;17.100;2022-08-11T16:28:20;21.10;91.20
25708;DHT22;13567;61.652;17.100;2022-08-11T16:30:48;21.00;91.10
25708;DHT22;13567;61.652;17.100;2022-08-11T16:33:17;20.80;91.50
25708;DHT22;13567;61.652;17.100;2022-08-11T16:36:08;20.80;92.40
25708;DHT22;13567;61.652;17.100;2022-08-11T16:38:56;20.90;92.50
25708;DHT22;13567;61.652;17.100;2022-08-11T16:41:28;20.90;92.40
25708;DHT22;13567;61.652;17.100;2022-08-11T16:44:16;20.80;92.70
25708;DHT22;13567;61.652;17.100;2022-08-11T16:47:12;20.90;92.10
25708;DHT22;13567;61.652;17.100;2022-08-11T16:49:47;20.80;92.20
25708;DHT22;13567;61.652;17.100;2022-08-11T16:52:19;20.80;92.80
25708;DHT22;13567;61.652;17.100;2022-08-11T16:54:46;20.70;93.60
25708;DHT22;13567;61.652;17.100;2022-08-11T16:57:24;20.50;93.30
25708;DHT22;13567;61.652;17.100;2022-08-11T17:00:14;20.40;93.70
25708;DHT22;13567;61.652;17.100;2022-08-11T17:02:45;20.50;93.70
25708;DHT22;13567;61.652;17.100;2022-08-11T17:05:36;20.40;94.00
25708;DHT22;13567;61.652;17.100;2022-08-11T17:08:33;20.20;94.70
25708;DHT22;13567;61.652;17.100;2022-08-11T17:11:26;20.10;94.90
25708;DHT22;13567;61.652;17.100;2022-08-11T17:14:16;20.10;95.30
25708;DHT22;13567;61.652;17.100;2022-08-11T17:17:06;19.90;95.40
25708;DHT22;13567;61.652;17.100;2022-08-11T17:19:36;19.90;96.20
25708;DHT22;13567;61.652;17.100;2022-08-11T17:22:28;19.90;95.80
25708;DHT22;13567;61.652;17.100;2022-08-11T17:25:15;19.80;96.10
25708;DHT22;13567;61.652;17.100;2022-08-11T17:27:43;19.80;96.50
25708;DHT22;13567;61.652;17.100;2022-08-11T17:30:12;19.80;96.70
25708;DHT22;13567;61.652;17.100;2022-08-11T17:32:44;19.70;96.70
25708;DHT22;13567;61.652;17.100;2022-08-11T17:35:36;19.60;96.70
25708;DHT22;13567;61.652;17.100;2022-08-11T17:38:14;19.60;97.10
25708;DHT22;13567;61.652;17.100;2022-08-11T17:40:47;19.50;97.20
25708;DHT22;13567;61.652;17.100;2022-08-11T17:43:33;19.50;97.20
25708;DHT22;13567;61.652;17.100;2022-08-11T17:46:20;19.40;97.70
25708;DHT22;13567;61.652;17.100;2022-08-11T17:49:08;19.40;98.10
25708;DHT22;13567;61.652;17.100;2022-08-11T17:51:36;19.40;98.20
25708;DHT22;13567;61.652;17.100;2022-08-11T17:54:23;19.40;98.30
25708;DHT22;13567;61.652;17.100;2022-08-11T17:57:12;19.40;98.60
25708;DHT22;13567;61.652;17.100;2022-08-11T17:59:59;19.30;98.80
25708;DHT22;13567;61.652;17.100;2022-08-11T18:02:38;19.30;98.90
25708;DHT22;13567;61.652;17.100;2022-08-11T18:05:29;19.20;99.30
25708;DHT22;13567;61.652;17.100;2022-08-11T18:08:00;19.20;99.50
25708;DHT22;13567;61.652;17.100;2022-08-11T18:10:47;19.20;99.90
25708;DHT22;13567;61.652;17.100;2022-08-11T18:13:36;19.20;99.90
25708;DHT22;13567;61.652;17.100;2022-08-11T18:16:22;19.20;99.90
25708;DHT22;13567;61.652;17.100;2022-08-11T18:19:09;19.10;99.90
25708;DHT22;13567;61.652;17.100;2022-08-11T18:22:02;19.00;99.90
25708;DHT22;13567;61.652;17.100;2022-08-11T18:24:56;18.90;99.90
25708;DHT22;13567;61.652;17.100;2022-08-11T18:27:44;18.90;99.90
25708;DHT22;13567;61.652;17.100;2022-08-11T18:30:36;18.90;99.90
25708;DHT22;13567;61.652;17.100;2022-08-11T18:33:40;18.80;99.90
25708;DHT22;13567;61.652;17.100;2022-08-11T18:36:40;18.80;99.90
25708;DHT22;13567;61.652;17.100;2022-08-11T18:39:34;18.70;99.90
25708;DHT22;13567;61.652;17.100;2022-08-11T18:42:23;18.70;99.90
25708;DHT22;13567;61.652;17.100;2022-08-11T18:45:14;18.60;99.90
25708;DHT22;13567;61.652;17.100;2022-08-11T18:48:17;18.60;99.90
25708;DHT22;13567;61.652;17.100;2022-08-11T18:51:05;18.60;99.90
25708;DHT22;13567;61.652;17.100;2022-08-11T18:54:01;18.60;99.90
25708;DHT22;13567;61.652;17.100;2022-08-11T18:56:47;18.60;99.90
25708;DHT22;13567;61.652;17.100;2022-08-11T18:59:37;18.60;99.90
25708;DHT22;13567;61.652;17.100;2022-08-11T19:02:25;18.50;99.90
25708;DHT22;13567;61.652;17.100;2022-08-11T19:05:17;18.50;99.90
25708;DHT22;13567;61.652;17.100;2022-08-11T19:08:27;18.50;99.90
25708;DHT22;13567;61.652;17.100;2022-08-11T19:11:14;18.50;99.90
25708;DHT22;13567;61.652;17.100;2022-08-11T19:14:08;18.50;99.90
25708;DHT22;13567;61.652;17.100;2022-08-11T19:16:56;18.50;99.90
25708;DHT22;13567;61.652;17.100;2022-08-11T19:20:04;18.40;99.90
25708;DHT22;13567;61.652;17.100;2022-08-11T19:22:51;18.40;99.90
25708;DHT22;13567;61.652;17.100;2022-08-11T19:25:39;18.40;99.90
25708;DHT22;13567;61.652;17.100;2022-08-11T19:28:28;18.40;99.90
25708;DHT22;13567;61.652;17.100;2022-08-11T19:31:14;18.30;99.90
25708;DHT22;13567;61.652;17.100;2022-08-11T19:34:01;18.30;99.90
25708;DHT22;13567;61.652;17.100;2022-08-11T19:36:51;18.30;99.90
25708;DHT22;13567;61.652;17.100;2022-08-11T19:39:37;18.30;99.90
25708;DHT22;13567;61.652;17.100;2022-08-11T19:42:25;18.30;99.90
25708;DHT22;13567;61.652;17.100;2022-08-11T19:45:11;18.30;99.90
25708;DHT22;13567;61.652;17.100;2022-08-11T19:47:57;18.40;99.90
25708;DHT22;13567;61.652;17.100;2022-08-11T19:50:59;18.40;99.90
25708;DHT22;13567;61.652;17.100;2022-08-11T19:53:46;18.40;99.90
25708;DHT22;13567;61.652;17.100;2022-08-11T19:56:33;18.40;99.90